sensor_id;sensor_type;location;lat;lon;timestamp;P1;durP1;ratioP1;P2;durP2;ratioP2
11653;SDS011;5883;48.818;9.114;2022-11-28T00:01:14;9.30;;;7.63;;
11653;SDS011;5883;48.818;9.114;2022-11-28T00:03:43;7.70;;;6.57;;
11653;SDS011;5883;48.818;9.114;2022-11-28T00:06:09;9.43;;;6.78;;
11653;SDS011;5883;48.818;9.114;2022-11-28T00:08:36;9.52;;;7.38;;
11653;SDS011;5883;48.818;9.114;2022-11-28T00:11:03;10.02;;;7.22;;
11653;SDS011;5883;48.818;9.114;2022-11-28T00:13:29;8.82;;;7.13;;
11653;SDS011;5883;48.818;9.114;2022-11-28T00:15:56;11.60;;;7.25;;
11653;SDS011;5883;48.818;9.114;2022-11-28T00:18:23;11.70;;;6.88;;
11653;SDS011;5883;48.818;9.114;2022-11-28T00:20:51;8.90;;;6.70;;
11653;SDS011;5883;48.818;9.114;2022-11-28T00:23:17;9.73;;;6.85;;
11653;SDS011;5883;48.818;9.114;2022-11-28T00:25:44;9.45;;;6.55;;
11653;SDS011;5883;48.818;9.114;2022-11-28T00:28:10;9.55;;;6.88;;
11653;SDS011;5883;48.818;9.114;2022-11-28T00:30:37;8.85;;;7.05;;
11653;SDS011;5883;48.818;9.114;2022-11-28T00:33:04;7.78;;;6.47;;
11653;SDS011;5883;48.818;9.114;2022-11-28T00:35:30;7.72;;;6.45;;
11653;SDS011;5883;48.818;9.114;2022-11-28T00:37:58;8.63;;;6.63;;
11653;SDS011;5883;48.818;9.114;2022-11-28T00:40:24;8.27;;;6.65;;
11653;SDS011;5883;48.818;9.114;2022-11-28T00:42:51;10.45;;;6.80;;
11653;SDS011;5883;48.818;9.114;2022-11-28T00:45:17;10.20;;;7.00;;
11653;SDS011;5883;48.818;9.114;2022-11-28T00:47:44;11.05;;;7.15;;
11653;SDS011;5883;48.818;9.114;2022-11-28T00:50:12;10.18;;;7.22;;
11653;SDS011;5883;48.818;9.114;2022-11-28T00:52:39;9.50;;;7.30;;
11653;SDS011;5883;48.818;9.114;2022-11-28T00:55:07;7.85;;;6.18;;
11653;SDS011;5883;48.818;9.114;2022-11-28T00:57:33;8.70;;;6.50;;
11653;SDS011;5883;48.818;9.114;2022-11-28T01:00:00;9.93;;;6.63;;
11653;SDS011;5883;48.818;9.114;2022-11-28T01:02:26;8.50;;;6.22;;
11653;SDS011;5883;48.818;9.114;2022-11-28T01:04:53;7.95;;;6.10;;
11653;SDS011;5883;48.818;9.114;2022-11-28T01:07:19;9.32;;;6.07;;
11653;SDS011;5883;48.818;9.114;2022-11-28T01:09:46;9.32;;;6.40;;
11653;SDS011;5883;48.818;9.114;2022-11-28T01:12:14;6.85;;;5.93;;
11653;SDS011;5883;48.818;9.114;2022-11-28T01:14:40;12.35;;;6.40;;
11653;SDS011;5883;48.818;9.114;2022-11-28T01:17:07;7.05;;;5.80;;
11653;SDS011;5883;48.818;9.114;2022-11-28T01:19:33;7.32;;;6.13;;
11653;SDS011;5883;48.818;9.114;2022-11-28T01:22:00;10.98;;;6.70;;
11653;SDS011;5883;48.818;9.114;2022-11-28T01:24:26;10.50;;;6.65;;
11653;SDS011;5883;48.818;9.114;2022-11-28T01:26:52;9.60;;;6.18;;
11653;SDS011;5883;48.818;9.114;2022-11-28T01:29:20;8.35;;;6.90;;
11653;SDS011;5883;48.818;9.114;2022-11-28T01:31:47;7.68;;;6.13;;
11653;SDS011;5883;48.818;9.114;2022-11-28T01:34:13;7.60;;;6.25;;
11653;SDS011;5883;48.818;9.114;2022-11-28T01:36:40;7.78;;;5.88;;
11653;SDS011;5883;48.818;9.114;2022-11-28T01:39:07;8.75;;;7.05;;
11653;SDS011;5883;48.818;9.114;2022-11-28T01:41:34;10.05;;;7.35;;
11653;SDS011;5883;48.818;9.114;2022-11-28T01:44:03;8.88;;;7.22;;
11653;SDS011;5883;48.818;9.114;2022-11-28T01:46:31;10.18;;;7.32;;
11653;SDS011;5883;48.818;9.114;2022-11-28T01:48:58;9.48;;;6.63;;
11653;SDS011;5883;48.818;9.114;2022-11-28T01:51:26;9.23;;;6.85;;
11653;SDS011;5883;48.818;9.114;2022-11-28T01:53:53;7.72;;;6.28;;
11653;SDS011;5883;48.818;9.114;2022-11-28T01:56:21;9.27;;;6.53;;
11653;SDS011;5883;48.818;9.114;2022-11-28T01:58:49;9.27;;;6.35;;
11653;SDS011;5883;48.818;9.114;2022-11-28T02:01:17;10.95;;;6.20;;
11653;SDS011;5883;48.818;9.114;2022-11-28T02:03:46;6.85;;;6.05;;
11653;SDS011;5883;48.818;9.114;2022-11-28T02:06:14;9.35;;;6.43;;
11653;SDS011;5883;48.818;9.114;2022-11-28T02:08:41;8.38;;;6.35;;
11653;SDS011;5883;48.818;9.114;2022-11-28T02:13:51;7.57;;;6.45;;
11653;SDS011;5883;48.818;9.114;2022-11-28T02:16:23;10.40;;;6.60;;
11653;SDS011;5883;48.818;9.114;2022-11-28T02:18:56;7.45;;;5.93;;
11653;SDS011;5883;48.818;9.114;2022-11-28T02:24:20;9.23;;;6.15;;
11653;SDS011;5883;48.818;9.114;2022-11-28T02:26:58;8.60;;;6.28;;
11653;SDS011;5883;48.818;9.114;2022-11-28T02:29:42;7.93;;;5.95;;
11653;SDS011;5883;48.818;9.114;2022-11-28T02:32:21;7.30;;;5.80;;
11653;SDS011;5883;48.818;9.114;2022-11-28T02:34:52;7.53;;;5.65;;
11653;SDS011;5883;48.818;9.114;2022-11-28T02:37:21;7.32;;;5.75;;
11653;SDS011;5883;48.818;9.114;2022-11-28T02:39:52;8.77;;;6.03;;
11653;SDS011;5883;48.818;9.114;2022-11-28T02:42:21;7.47;;;5.95;;
11653;SDS011;5883;48.818;9.114;2022-11-28T02:44:51;6.90;;;5.75;;
11653;SDS011;5883;48.818;9.114;2022-11-28T02:47:22;8.65;;;5.32;;
11653;SDS011;5883;48.818;9.114;2022-11-28T02:49:52;9.25;;;6.07;;
11653;SDS011;5883;48.818;9.114;2022-11-28T02:52:21;8.18;;;6.38;;
11653;SDS011;5883;48.818;9.114;2022-11-28T02:54:49;8.18;;;5.70;;
11653;SDS011;5883;48.818;9.114;2022-11-28T02:57:16;6.65;;;5.68;;
11653;SDS011;5883;48.818;9.114;2022-11-28T02:59:47;6.60;;;5.65;;
11653;SDS011;5883;48.818;9.114;2022-11-28T03:02:14;8.23;;;6.00;;
11653;SDS011;5883;48.818;9.114;2022-11-28T03:04:45;7.80;;;5.25;;
11653;SDS011;5883;48.818;9.114;2022-11-28T03:07:18;7.65;;;5.63;;
11653;SDS011;5883;48.818;9.114;2022-11-28T03:09:50;9.13;;;5.70;;
11653;SDS011;5883;48.818;9.114;2022-11-28T03:12:23;7.47;;;5.93;;
11653;SDS011;5883;48.818;9.114;2022-11-28T03:14:51;7.95;;;5.72;;
11653;SDS011;5883;48.818;9.114;2022-11-28T03:17:20;8.23;;;6.03;;
11653;SDS011;5883;48.818;9.114;2022-11-28T03:19:52;6.57;;;5.43;;
11653;SDS011;5883;48.818;9.114;2022-11-28T03:22:21;8.73;;;5.13;;
11653;SDS011;5883;48.818;9.114;2022-11-28T03:24:54;7.65;;;5.68;;
11653;SDS011;5883;48.818;9.114;2022-11-28T03:27:23;7.70;;;5.88;;
11653;SDS011;5883;48.818;9.114;2022-11-28T03:29:51;6.05;;;5.22;;
11653;SDS011;5883;48.818;9.114;2022-11-28T03:32:20;10.10;;;5.75;;
11653;SDS011;5883;48.818;9.114;2022-11-28T03:34:48;8.07;;;5.50;;
11653;SDS011;5883;48.818;9.114;2022-11-28T03:37:18;9.32;;;5.07;;
11653;SDS011;5883;48.818;9.114;2022-11-28T03:39:47;7.65;;;5.53;;
11653;SDS011;5883;48.818;9.114;2022-11-28T03:42:15;7.63;;;5.50;;
11653;SDS011;5883;48.818;9.114;2022-11-28T03:44:43;6.13;;;4.88;;
11653;SDS011;5883;48.818;9.114;2022-11-28T03:47:11;6.43;;;5.00;;
11653;SDS011;5883;48.818;9.114;2022-11-28T03:49:38;6.47;;;4.95;;
11653;SDS011;5883;48.818;9.114;2022-11-28T03:52:06;8.20;;;5.60;;
11653;SDS011;5883;48.818;9.114;2022-11-28T03:54:39;6.80;;;4.95;;
11653;SDS011;5883;48.818;9.114;2022-11-28T03:57:08;8.73;;;5.70;;
11653;SDS011;5883;48.818;9.114;2022-11-28T03:59:37;8.35;;;5.40;;
11653;SDS011;5883;48.818;9.114;2022-11-28T04:02:05;6.30;;;4.90;;
11653;SDS011;5883;48.818;9.114;2022-11-28T04:04:39;8.52;;;5.30;;
11653;SDS011;5883;48.818;9.114;2022-11-28T04:07:09;6.40;;;5.15;;
11653;SDS011;5883;48.818;9.114;2022-11-28T04:09:40;7.80;;;5.57;;
11653;SDS011;5883;48.818;9.114;2022-11-28T04:12:09;5.80;;;5.15;;
11653;SDS011;5883;48.818;9.114;2022-11-28T04:14:37;6.10;;;5.00;;
11653;SDS011;5883;48.818;9.114;2022-11-28T04:17:06;6.90;;;5.28;;
11653;SDS011;5883;48.818;9.114;2022-11-28T04:19:35;5.82;;;5.05;;
11653;SDS011;5883;48.818;9.114;2022-11-28T04:22:04;5.68;;;5.05;;
11653;SDS011;5883;48.818;9.114;2022-11-28T04:24:35;7.03;;;5.22;;
11653;SDS011;5883;48.818;9.114;2022-11-28T04:27:05;6.85;;;5.05;;
11653;SDS011;5883;48.818;9.114;2022-11-28T04:29:33;7.20;;;5.38;;
11653;SDS011;5883;48.818;9.114;2022-11-28T04:32:00;6.90;;;5.40;;
11653;SDS011;5883;48.818;9.114;2022-11-28T04:34:28;6.57;;;5.28;;
11653;SDS011;5883;48.818;9.114;2022-11-28T04:36:56;7.18;;;5.95;;
11653;SDS011;5883;48.818;9.114;2022-11-28T04:39:24;7.18;;;5.22;;
11653;SDS011;5883;48.818;9.114;2022-11-28T04:41:52;5.93;;;4.78;;
11653;SDS011;5883;48.818;9.114;2022-11-28T04:44:21;6.57;;;5.00;;
11653;SDS011;5883;48.818;9.114;2022-11-28T04:46:49;6.95;;;5.05;;
11653;SDS011;5883;48.818;9.114;2022-11-28T04:49:17;6.18;;;5.07;;
11653;SDS011;5883;48.818;9.114;2022-11-28T04:51:44;6.40;;;4.63;;
11653;SDS011;5883;48.818;9.114;2022-11-28T04:54:13;7.25;;;5.20;;
11653;SDS011;5883;48.818;9.114;2022-11-28T04:56:41;6.50;;;4.70;;
11653;SDS011;5883;48.818;9.114;2022-11-28T04:59:09;7.13;;;5.15;;
11653;SDS011;5883;48.818;9.114;2022-11-28T05:01:37;6.45;;;4.75;;
11653;SDS011;5883;48.818;9.114;2022-11-28T05:04:05;7.57;;;5.30;;
11653;SDS011;5883;48.818;9.114;2022-11-28T05:06:32;7.13;;;4.88;;
11653;SDS011;5883;48.818;9.114;2022-11-28T05:08:59;7.55;;;5.03;;
11653;SDS011;5883;48.818;9.114;2022-11-28T05:11:25;7.95;;;5.53;;
11653;SDS011;5883;48.818;9.114;2022-11-28T05:13:52;5.60;;;5.03;;
11653;SDS011;5883;48.818;9.114;2022-11-28T05:16:19;7.25;;;5.32;;
11653;SDS011;5883;48.818;9.114;2022-11-28T05:18:47;6.30;;;5.35;;
11653;SDS011;5883;48.818;9.114;2022-11-28T05:21:16;6.90;;;5.57;;
11653;SDS011;5883;48.818;9.114;2022-11-28T05:23:43;5.78;;;4.63;;
11653;SDS011;5883;48.818;9.114;2022-11-28T05:26:13;7.07;;;5.05;;
11653;SDS011;5883;48.818;9.114;2022-11-28T05:28:41;8.07;;;5.20;;
11653;SDS011;5883;48.818;9.114;2022-11-28T05:31:08;15.48;;;5.47;;
11653;SDS011;5883;48.818;9.114;2022-11-28T05:33:34;7.38;;;5.40;;
11653;SDS011;5883;48.818;9.114;2022-11-28T05:36:03;10.75;;;5.10;;
11653;SDS011;5883;48.818;9.114;2022-11-28T05:38:30;8.63;;;5.13;;
11653;SDS011;5883;48.818;9.114;2022-11-28T05:40:57;9.05;;;4.95;;
11653;SDS011;5883;48.818;9.114;2022-11-28T05:43:24;5.90;;;4.97;;
11653;SDS011;5883;48.818;9.114;2022-11-28T05:45:50;7.15;;;5.57;;
11653;SDS011;5883;48.818;9.114;2022-11-28T05:48:17;8.63;;;5.50;;
11653;SDS011;5883;48.818;9.114;2022-11-28T05:50:43;10.85;;;5.68;;
11653;SDS011;5883;48.818;9.114;2022-11-28T05:53:11;7.03;;;5.60;;
11653;SDS011;5883;48.818;9.114;2022-11-28T05:55:38;7.38;;;5.75;;
11653;SDS011;5883;48.818;9.114;2022-11-28T05:58:05;7.82;;;5.45;;
11653;SDS011;5883;48.818;9.114;2022-11-28T06:00:32;7.68;;;5.85;;
11653;SDS011;5883;48.818;9.114;2022-11-28T06:02:59;8.80;;;5.57;;
11653;SDS011;5883;48.818;9.114;2022-11-28T06:05:25;8.23;;;5.45;;
11653;SDS011;5883;48.818;9.114;2022-11-28T06:07:52;7.47;;;6.18;;
11653;SDS011;5883;48.818;9.114;2022-11-28T06:10:20;8.25;;;5.85;;
11653;SDS011;5883;48.818;9.114;2022-11-28T06:12:46;8.05;;;5.60;;
11653;SDS011;5883;48.818;9.114;2022-11-28T06:15:13;7.03;;;5.80;;
11653;SDS011;5883;48.818;9.114;2022-11-28T06:17:39;8.77;;;5.38;;
11653;SDS011;5883;48.818;9.114;2022-11-28T06:20:06;7.70;;;5.72;;
11653;SDS011;5883;48.818;9.114;2022-11-28T06:22:33;7.55;;;5.40;;
11653;SDS011;5883;48.818;9.114;2022-11-28T06:25:00;11.65;;;6.20;;
11653;SDS011;5883;48.818;9.114;2022-11-28T06:27:28;8.63;;;6.05;;
11653;SDS011;5883;48.818;9.114;2022-11-28T06:29:54;6.68;;;5.63;;
11653;SDS011;5883;48.818;9.114;2022-11-28T06:32:20;8.27;;;5.88;;
11653;SDS011;5883;48.818;9.114;2022-11-28T06:34:47;8.30;;;5.47;;
11653;SDS011;5883;48.818;9.114;2022-11-28T06:37:13;8.32;;;5.90;;
11653;SDS011;5883;48.818;9.114;2022-11-28T06:39:40;11.25;;;6.05;;
11653;SDS011;5883;48.818;9.114;2022-11-28T06:42:06;9.27;;;6.22;;
11653;SDS011;5883;48.818;9.114;2022-11-28T06:44:34;9.07;;;6.65;;
11653;SDS011;5883;48.818;9.114;2022-11-28T06:47:00;7.13;;;6.20;;
11653;SDS011;5883;48.818;9.114;2022-11-28T06:49:27;7.55;;;5.90;;
11653;SDS011;5883;48.818;9.114;2022-11-28T06:51:53;8.05;;;5.75;;
11653;SDS011;5883;48.818;9.114;2022-11-28T06:54:20;7.43;;;6.15;;
11653;SDS011;5883;48.818;9.114;2022-11-28T06:56:46;10.95;;;6.22;;
11653;SDS011;5883;48.818;9.114;2022-11-28T06:59:13;12.18;;;6.97;;
11653;SDS011;5883;48.818;9.114;2022-11-28T07:01:40;8.50;;;6.80;;
11653;SDS011;5883;48.818;9.114;2022-11-28T07:04:07;7.22;;;5.85;;
11653;SDS011;5883;48.818;9.114;2022-11-28T07:06:34;7.95;;;5.72;;
11653;SDS011;5883;48.818;9.114;2022-11-28T07:09:00;6.78;;;5.47;;
11653;SDS011;5883;48.818;9.114;2022-11-28T07:11:28;10.23;;;5.90;;
11653;SDS011;5883;48.818;9.114;2022-11-28T07:13:55;9.15;;;5.68;;
11653;SDS011;5883;48.818;9.114;2022-11-28T07:16:22;7.88;;;5.75;;
11653;SDS011;5883;48.818;9.114;2022-11-28T07:18:50;9.45;;;5.55;;
11653;SDS011;5883;48.818;9.114;2022-11-28T07:21:17;6.63;;;5.32;;
11653;SDS011;5883;48.818;9.114;2022-11-28T07:23:44;6.75;;;5.25;;
11653;SDS011;5883;48.818;9.114;2022-11-28T07:26:12;6.65;;;4.82;;
11653;SDS011;5883;48.818;9.114;2022-11-28T07:28:38;8.40;;;5.10;;
11653;SDS011;5883;48.818;9.114;2022-11-28T07:31:05;8.25;;;6.13;;
11653;SDS011;5883;48.818;9.114;2022-11-28T07:33:32;10.55;;;6.60;;
11653;SDS011;5883;48.818;9.114;2022-11-28T07:36:01;7.78;;;5.30;;
11653;SDS011;5883;48.818;9.114;2022-11-28T07:38:27;9.20;;;5.45;;
11653;SDS011;5883;48.818;9.114;2022-11-28T07:40:54;7.15;;;6.13;;
11653;SDS011;5883;48.818;9.114;2022-11-28T07:43:21;7.82;;;5.97;;
11653;SDS011;5883;48.818;9.114;2022-11-28T07:45:47;7.63;;;5.60;;
11653;SDS011;5883;48.818;9.114;2022-11-28T07:48:14;7.43;;;5.63;;
11653;SDS011;5883;48.818;9.114;2022-11-28T07:50:40;8.63;;;4.80;;
11653;SDS011;5883;48.818;9.114;2022-11-28T07:53:08;10.55;;;6.00;;
11653;SDS011;5883;48.818;9.114;2022-11-28T07:55:35;11.32;;;7.28;;
11653;SDS011;5883;48.818;9.114;2022-11-28T07:58:01;11.65;;;7.53;;
11653;SDS011;5883;48.818;9.114;2022-11-28T08:00:28;13.63;;;6.80;;
11653;SDS011;5883;48.818;9.114;2022-11-28T08:02:55;15.52;;;7.45;;
11653;SDS011;5883;48.818;9.114;2022-11-28T08:05:21;18.65;;;8.35;;
11653;SDS011;5883;48.818;9.114;2022-11-28T08:07:48;12.50;;;6.68;;
11653;SDS011;5883;48.818;9.114;2022-11-28T08:10:16;10.07;;;6.80;;
11653;SDS011;5883;48.818;9.114;2022-11-28T08:12:43;22.45;;;9.90;;
11653;SDS011;5883;48.818;9.114;2022-11-28T08:15:09;18.05;;;9.10;;
11653;SDS011;5883;48.818;9.114;2022-11-28T08:17:36;23.02;;;11.60;;
11653;SDS011;5883;48.818;9.114;2022-11-28T08:20:03;28.30;;;13.85;;
11653;SDS011;5883;48.818;9.114;2022-11-28T08:22:29;27.90;;;13.95;;
11653;SDS011;5883;48.818;9.114;2022-11-28T08:24:56;23.75;;;12.35;;
11653;SDS011;5883;48.818;9.114;2022-11-28T08:27:24;27.33;;;12.95;;
11653;SDS011;5883;48.818;9.114;2022-11-28T08:29:50;23.48;;;11.60;;
11653;SDS011;5883;48.818;9.114;2022-11-28T08:32:17;25.48;;;10.30;;
11653;SDS011;5883;48.818;9.114;2022-11-28T08:34:44;25.20;;;10.95;;
11653;SDS011;5883;48.818;9.114;2022-11-28T08:37:10;24.73;;;13.50;;
11653;SDS011;5883;48.818;9.114;2022-11-28T08:39:37;19.80;;;11.45;;
11653;SDS011;5883;48.818;9.114;2022-11-28T08:42:03;17.75;;;9.27;;
11653;SDS011;5883;48.818;9.114;2022-11-28T08:44:31;15.23;;;9.02;;
11653;SDS011;5883;48.818;9.114;2022-11-28T08:46:58;14.85;;;8.73;;
11653;SDS011;5883;48.818;9.114;2022-11-28T08:49:24;12.68;;;8.05;;
11653;SDS011;5883;48.818;9.114;2022-11-28T08:51:51;12.48;;;7.85;;
11653;SDS011;5883;48.818;9.114;2022-11-28T08:54:17;10.05;;;7.40;;
11653;SDS011;5883;48.818;9.114;2022-11-28T08:56:45;15.77;;;8.07;;
11653;SDS011;5883;48.818;9.114;2022-11-28T08:59:12;13.00;;;8.40;;
11653;SDS011;5883;48.818;9.114;2022-11-28T09:01:40;11.70;;;8.73;;
11653;SDS011;5883;48.818;9.114;2022-11-28T09:04:07;17.63;;;8.18;;
11653;SDS011;5883;48.818;9.114;2022-11-28T09:06:33;15.88;;;8.38;;
11653;SDS011;5883;48.818;9.114;2022-11-28T09:09:00;12.20;;;7.88;;
11653;SDS011;5883;48.818;9.114;2022-11-28T09:11:27;9.88;;;7.20;;
11653;SDS011;5883;48.818;9.114;2022-11-28T09:13:53;21.50;;;7.13;;
11653;SDS011;5883;48.818;9.114;2022-11-28T09:16:21;11.70;;;7.78;;
11653;SDS011;5883;48.818;9.114;2022-11-28T09:18:48;10.75;;;7.10;;
11653;SDS011;5883;48.818;9.114;2022-11-28T09:21:16;12.30;;;6.45;;
11653;SDS011;5883;48.818;9.114;2022-11-28T09:23:43;12.98;;;7.05;;
11653;SDS011;5883;48.818;9.114;2022-11-28T09:26:09;11.55;;;6.93;;
11653;SDS011;5883;48.818;9.114;2022-11-28T09:28:36;11.60;;;7.68;;
11653;SDS011;5883;48.818;9.114;2022-11-28T09:31:03;13.70;;;8.40;;
11653;SDS011;5883;48.818;9.114;2022-11-28T09:33:30;14.35;;;9.88;;
11653;SDS011;5883;48.818;9.114;2022-11-28T09:36:01;14.00;;;8.85;;
11653;SDS011;5883;48.818;9.114;2022-11-28T09:38:29;11.38;;;8.35;;
11653;SDS011;5883;48.818;9.114;2022-11-28T09:40:55;11.38;;;8.20;;
11653;SDS011;5883;48.818;9.114;2022-11-28T09:43:22;13.02;;;7.78;;
11653;SDS011;5883;48.818;9.114;2022-11-28T09:45:51;10.20;;;6.43;;
11653;SDS011;5883;48.818;9.114;2022-11-28T09:48:22;7.47;;;5.75;;
11653;SDS011;5883;48.818;9.114;2022-11-28T09:50:50;8.20;;;5.80;;
11653;SDS011;5883;48.818;9.114;2022-11-28T09:53:21;10.43;;;6.20;;
11653;SDS011;5883;48.818;9.114;2022-11-28T09:55:49;11.30;;;5.90;;
11653;SDS011;5883;48.818;9.114;2022-11-28T09:58:18;13.52;;;6.15;;
11653;SDS011;5883;48.818;9.114;2022-11-28T10:00:50;7.55;;;4.90;;
11653;SDS011;5883;48.818;9.114;2022-11-28T10:03:24;10.57;;;5.65;;
11653;SDS011;5883;48.818;9.114;2022-11-28T10:05:57;9.38;;;5.68;;
11653;SDS011;5883;48.818;9.114;2022-11-28T10:08:28;11.68;;;6.18;;
11653;SDS011;5883;48.818;9.114;2022-11-28T10:11:00;12.68;;;6.20;;
11653;SDS011;5883;48.818;9.114;2022-11-28T10:13:31;10.95;;;5.65;;
11653;SDS011;5883;48.818;9.114;2022-11-28T10:16:01;11.65;;;5.85;;
11653;SDS011;5883;48.818;9.114;2022-11-28T10:18:35;13.70;;;6.22;;
11653;SDS011;5883;48.818;9.114;2022-11-28T10:21:04;12.13;;;5.85;;
11653;SDS011;5883;48.818;9.114;2022-11-28T10:23:36;10.48;;;5.90;;
11653;SDS011;5883;48.818;9.114;2022-11-28T10:26:04;11.18;;;6.28;;
11653;SDS011;5883;48.818;9.114;2022-11-28T10:28:33;10.20;;;6.50;;
11653;SDS011;5883;48.818;9.114;2022-11-28T10:31:01;11.20;;;6.50;;
11653;SDS011;5883;48.818;9.114;2022-11-28T10:33:30;10.15;;;6.65;;
11653;SDS011;5883;48.818;9.114;2022-11-28T10:35:59;12.60;;;6.60;;
11653;SDS011;5883;48.818;9.114;2022-11-28T10:38:28;13.73;;;6.85;;
11653;SDS011;5883;48.818;9.114;2022-11-28T10:40:58;12.82;;;7.13;;
11653;SDS011;5883;48.818;9.114;2022-11-28T10:43:31;10.80;;;6.25;;
11653;SDS011;5883;48.818;9.114;2022-11-28T10:46:03;17.30;;;7.18;;
11653;SDS011;5883;48.818;9.114;2022-11-28T10:48:35;11.98;;;5.65;;
11653;SDS011;5883;48.818;9.114;2022-11-28T10:51:06;14.82;;;6.35;;
11653;SDS011;5883;48.818;9.114;2022-11-28T10:53:49;16.02;;;6.55;;
11653;SDS011;5883;48.818;9.114;2022-11-28T10:56:20;15.07;;;7.88;;
11653;SDS011;5883;48.818;9.114;2022-11-28T10:58:52;11.93;;;6.95;;
11653;SDS011;5883;48.818;9.114;2022-11-28T11:01:21;7.22;;;5.55;;
11653;SDS011;5883;48.818;9.114;2022-11-28T11:03:47;8.20;;;5.43;;
11653;SDS011;5883;48.818;9.114;2022-11-28T11:06:14;10.35;;;5.47;;
11653;SDS011;5883;48.818;9.114;2022-11-28T11:08:40;9.05;;;5.90;;
11653;SDS011;5883;48.818;9.114;2022-11-28T11:11:09;9.00;;;5.28;;
11653;SDS011;5883;48.818;9.114;2022-11-28T11:13:54;9.40;;;5.75;;
11653;SDS011;5883;48.818;9.114;2022-11-28T11:16:20;10.70;;;6.60;;
11653;SDS011;5883;48.818;9.114;2022-11-28T11:18:49;11.30;;;6.35;;
11653;SDS011;5883;48.818;9.114;2022-11-28T11:21:17;10.20;;;5.65;;
11653;SDS011;5883;48.818;9.114;2022-11-28T11:23:45;10.23;;;5.22;;
11653;SDS011;5883;48.818;9.114;2022-11-28T11:26:21;12.55;;;5.85;;
11653;SDS011;5883;48.818;9.114;2022-11-28T11:28:48;12.52;;;6.05;;
11653;SDS011;5883;48.818;9.114;2022-11-28T11:31:20;10.48;;;6.75;;
11653;SDS011;5883;48.818;9.114;2022-11-28T11:33:47;9.38;;;6.68;;
11653;SDS011;5883;48.818;9.114;2022-11-28T11:36:19;12.70;;;7.03;;
11653;SDS011;5883;48.818;9.114;2022-11-28T11:38:45;14.23;;;6.78;;
11653;SDS011;5883;48.818;9.114;2022-11-28T11:41:25;10.55;;;5.93;;
11653;SDS011;5883;48.818;9.114;2022-11-28T11:43:53;15.10;;;7.38;;
11653;SDS011;5883;48.818;9.114;2022-11-28T11:46:19;11.85;;;6.60;;
11653;SDS011;5883;48.818;9.114;2022-11-28T11:48:47;12.10;;;5.97;;
11653;SDS011;5883;48.818;9.114;2022-11-28T11:51:24;11.25;;;6.32;;
11653;SDS011;5883;48.818;9.114;2022-11-28T11:54:00;10.73;;;5.90;;
11653;SDS011;5883;48.818;9.114;2022-11-28T11:56:29;9.95;;;6.25;;
11653;SDS011;5883;48.818;9.114;2022-11-28T11:58:56;8.60;;;5.78;;
11653;SDS011;5883;48.818;9.114;2022-11-28T12:01:23;10.48;;;6.70;;
11653;SDS011;5883;48.818;9.114;2022-11-28T12:03:52;10.93;;;6.40;;
11653;SDS011;5883;48.818;9.114;2022-11-28T12:06:19;9.93;;;6.88;;
11653;SDS011;5883;48.818;9.114;2022-11-28T12:08:48;10.52;;;6.80;;
11653;SDS011;5883;48.818;9.114;2022-11-28T12:11:16;15.40;;;7.13;;
11653;SDS011;5883;48.818;9.114;2022-11-28T12:13:45;9.93;;;6.57;;
11653;SDS011;5883;48.818;9.114;2022-11-28T12:16:20;9.73;;;6.80;;
11653;SDS011;5883;48.818;9.114;2022-11-28T12:18:51;13.85;;;7.22;;
11653;SDS011;5883;48.818;9.114;2022-11-28T12:21:22;12.68;;;6.25;;
11653;SDS011;5883;48.818;9.114;2022-11-28T12:23:57;13.90;;;6.38;;
11653;SDS011;5883;48.818;9.114;2022-11-28T12:26:29;13.30;;;5.93;;
11653;SDS011;5883;48.818;9.114;2022-11-28T12:29:03;8.25;;;5.72;;
11653;SDS011;5883;48.818;9.114;2022-11-28T12:31:34;9.82;;;6.22;;
11653;SDS011;5883;48.818;9.114;2022-11-28T12:34:06;10.05;;;6.25;;
11653;SDS011;5883;48.818;9.114;2022-11-28T12:36:38;8.80;;;6.13;;
11653;SDS011;5883;48.818;9.114;2022-11-28T12:39:16;9.68;;;5.70;;
11653;SDS011;5883;48.818;9.114;2022-11-28T12:41:54;9.02;;;4.95;;
11653;SDS011;5883;48.818;9.114;2022-11-28T12:44:28;14.35;;;5.47;;
11653;SDS011;5883;48.818;9.114;2022-11-28T12:47:00;7.65;;;4.75;;
11653;SDS011;5883;48.818;9.114;2022-11-28T12:49:29;7.63;;;5.22;;
11653;SDS011;5883;48.818;9.114;2022-11-28T12:52:01;8.02;;;5.05;;
11653;SDS011;5883;48.818;9.114;2022-11-28T12:54:44;8.43;;;4.85;;
11653;SDS011;5883;48.818;9.114;2022-11-28T12:57:14;8.95;;;5.10;;
11653;SDS011;5883;48.818;9.114;2022-11-28T12:59:44;10.60;;;5.45;;
11653;SDS011;5883;48.818;9.114;2022-11-28T13:02:19;10.43;;;6.07;;
11653;SDS011;5883;48.818;9.114;2022-11-28T13:04:52;11.82;;;6.82;;
11653;SDS011;5883;48.818;9.114;2022-11-28T13:07:23;15.55;;;6.40;;
11653;SDS011;5883;48.818;9.114;2022-11-28T13:09:55;10.07;;;5.60;;
11653;SDS011;5883;48.818;9.114;2022-11-28T13:12:25;10.35;;;5.68;;
11653;SDS011;5883;48.818;9.114;2022-11-28T13:14:56;8.07;;;5.53;;
11653;SDS011;5883;48.818;9.114;2022-11-28T13:17:29;7.25;;;5.13;;
11653;SDS011;5883;48.818;9.114;2022-11-28T13:20:01;8.65;;;4.95;;
11653;SDS011;5883;48.818;9.114;2022-11-28T13:22:31;5.70;;;4.70;;
11653;SDS011;5883;48.818;9.114;2022-11-28T13:25:00;10.02;;;5.40;;
11653;SDS011;5883;48.818;9.114;2022-11-28T13:27:31;10.90;;;5.63;;
11653;SDS011;5883;48.818;9.114;2022-11-28T13:30:04;11.18;;;5.07;;
11653;SDS011;5883;48.818;9.114;2022-11-28T13:32:36;8.40;;;5.38;;
11653;SDS011;5883;48.818;9.114;2022-11-28T13:35:09;6.35;;;4.82;;
11653;SDS011;5883;48.818;9.114;2022-11-28T13:37:39;7.70;;;4.95;;
11653;SDS011;5883;48.818;9.114;2022-11-28T13:40:12;7.20;;;4.90;;
11653;SDS011;5883;48.818;9.114;2022-11-28T13:42:41;5.90;;;4.72;;
11653;SDS011;5883;48.818;9.114;2022-11-28T13:45:19;7.38;;;5.57;;
11653;SDS011;5883;48.818;9.114;2022-11-28T13:47:46;7.75;;;5.53;;
11653;SDS011;5883;48.818;9.114;2022-11-28T13:50:33;6.90;;;5.10;;
11653;SDS011;5883;48.818;9.114;2022-11-28T13:53:01;8.75;;;5.28;;
11653;SDS011;5883;48.818;9.114;2022-11-28T13:55:38;9.10;;;5.47;;
11653;SDS011;5883;48.818;9.114;2022-11-28T13:58:15;7.43;;;4.95;;
11653;SDS011;5883;48.818;9.114;2022-11-28T14:00:44;8.73;;;5.47;;
11653;SDS011;5883;48.818;9.114;2022-11-28T14:03:23;8.82;;;6.05;;
11653;SDS011;5883;48.818;9.114;2022-11-28T14:05:52;8.73;;;5.93;;
11653;SDS011;5883;48.818;9.114;2022-11-28T14:08:25;10.15;;;6.10;;
11653;SDS011;5883;48.818;9.114;2022-11-28T14:11:04;13.55;;;7.30;;
11653;SDS011;5883;48.818;9.114;2022-11-28T14:13:35;10.52;;;7.25;;
11653;SDS011;5883;48.818;9.114;2022-11-28T14:16:09;11.43;;;7.57;;
11653;SDS011;5883;48.818;9.114;2022-11-28T14:18:48;12.70;;;7.40;;
11653;SDS011;5883;48.818;9.114;2022-11-28T14:21:21;11.07;;;7.45;;
11653;SDS011;5883;48.818;9.114;2022-11-28T14:23:51;16.13;;;7.35;;
11653;SDS011;5883;48.818;9.114;2022-11-28T14:26:21;12.23;;;7.10;;
11653;SDS011;5883;48.818;9.114;2022-11-28T14:28:49;13.23;;;6.88;;
11653;SDS011;5883;48.818;9.114;2022-11-28T14:31:20;13.05;;;7.65;;
11653;SDS011;5883;48.818;9.114;2022-11-28T14:33:51;12.57;;;7.28;;
11653;SDS011;5883;48.818;9.114;2022-11-28T14:36:23;9.73;;;7.32;;
11653;SDS011;5883;48.818;9.114;2022-11-28T14:39:09;9.50;;;7.32;;
11653;SDS011;5883;48.818;9.114;2022-11-28T14:47:27;9.23;;;7.05;;
11653;SDS011;5883;48.818;9.114;2022-11-28T14:52:41;10.70;;;7.38;;
11653;SDS011;5883;48.818;9.114;2022-11-28T14:55:17;13.02;;;7.85;;
11653;SDS011;5883;48.818;9.114;2022-11-28T14:57:56;11.00;;;7.25;;
11653;SDS011;5883;48.818;9.114;2022-11-28T15:00:24;14.40;;;7.80;;
11653;SDS011;5883;48.818;9.114;2022-11-28T15:02:55;9.57;;;7.20;;
11653;SDS011;5883;48.818;9.114;2022-11-28T15:05:29;13.80;;;7.25;;
11653;SDS011;5883;48.818;9.114;2022-11-28T15:10:55;10.20;;;7.65;;
11653;SDS011;5883;48.818;9.114;2022-11-28T15:13:28;11.23;;;7.72;;
11653;SDS011;5883;48.818;9.114;2022-11-28T15:15:57;13.18;;;8.13;;
11653;SDS011;5883;48.818;9.114;2022-11-28T15:18:24;15.82;;;9.63;;
11653;SDS011;5883;48.818;9.114;2022-11-28T15:20:52;14.60;;;8.38;;
11653;SDS011;5883;48.818;9.114;2022-11-28T15:23:23;15.82;;;9.27;;